Time;durP1;ratioP1;P1;durP2;ratioP2;P2;SDS_P1;SDS_P2;PMS_P1;PMS_P2;Temp;Humidity;BMP_temperature;BMP_pressure;BME280_temperature;BME280_humidity;BME280_pressure;Samples;Min_cycle;Max_cycle;Signal;HPM_P1;HPM_P2
2022/12/09 00:00:56;;;;;;;14.75;8.95;;;-1.00;99.90;;;;;;5111420;28;20035;-62
2022/12/09 00:03:21;;;;;;;15.45;8.93;;;-1.00;99.90;;;;;;5112167;28;20031;-62
2022/12/09 00:05:49;;;;;;;12.73;8.82;;;-1.00;99.90;;;;;;5112898;28;20039;-62
2022/12/09 00:08:15;;;;;;;15.45;8.70;;;-1.00;99.90;;;;;;5111710;28;20048;-62
2022/12/09 00:10:42;;;;;;;14.68;8.38;;;-1.00;99.90;;;;;;5111236;28;20568;-63
2022/12/09 00:13:09;;;;;;;11.93;6.63;;;-0.90;99.90;;;;;;5112544;28;20131;-63
2022/12/09 00:15:38;;;;;;;15.07;9.10;;;-1.00;99.90;;;;;;5112796;28;20046;-62
2022/12/09 00:18:04;;;;;;;14.80;8.63;;;-1.00;99.90;;;;;;5110282;28;20043;-62
2022/12/09 00:20:30;;;;;;;14.85;8.60;;;-1.00;99.90;;;;;;5111507;28;20040;-63
2022/12/09 00:22:56;;;;;;;14.65;9.02;;;-1.00;99.90;;;;;;5111038;28;20062;-63
2022/12/09 00:25:22;;;;;;;15.23;10.43;;;-1.00;99.90;;;;;;5111514;28;20032;-62
2022/12/09 00:27:47;;;;;;;13.90;9.45;;;-1.00;99.90;;;;;;5110934;28;20126;-63
2022/12/09 00:30:13;;;;;;;14.90;10.57;;;-1.00;99.90;;;;;;5112140;28;20511;-63
2022/12/09 00:32:39;;;;;;;16.35;10.10;;;-1.00;99.90;;;;;;5112348;28;20043;-63
2022/12/09 00:35:05;;;;;;;14.65;9.82;;;-1.00;99.90;;;;;;5110731;28;20412;-63
2022/12/09 00:37:32;;;;;;;16.52;10.75;;;-1.00;99.90;;;;;;5110547;28;20040;-63
2022/12/09 00:39:57;;;;;;;15.40;9.88;;;-1.00;99.90;;;;;;5112315;28;20515;-63
2022/12/09 00:42:23;;;;;;;25.20;10.95;;;-1.00;99.90;;;;;;5110899;28;20071;-63
2022/12/09 00:44:49;;;;;;;30.65;12.02;;;-1.00;99.90;;;;;;5109862;28;20043;-62
2022/12/09 00:47:14;;;;;;;22.00;10.68;;;-1.00;99.90;;;;;;5112216;28;20067;-62
2022/12/09 00:49:40;;;;;;;25.35;11.98;;;-1.00;99.90;;;;;;5112692;28;20042;-63
2022/12/09 00:52:06;;;;;;;82.75;18.17;;;-1.00;99.90;;;;;;5109767;28;20035;-63
2022/12/09 00:54:31;;;;;;;52.58;14.38;;;-1.00;99.90;;;;;;5112138;28;20036;-63
2022/12/09 00:56:57;;;;;;;106.38;22.02;;;-1.00;99.90;;;;;;5093739;28;20069;-63
2022/12/09 00:59:23;;;;;;;23.73;11.27;;;-1.00;99.90;;;;;;5111052;28;20038;-63
2022/12/09 01:01:48;;;;;;;88.57;24.25;;;-0.90;99.90;;;;;;5113794;28;20088;-62
2022/12/09 01:04:16;;;;;;;74.15;19.08;;;-0.90;99.90;;;;;;5116117;28;20122;-63
2022/12/09 01:06:41;;;;;;;87.80;22.67;;;-0.90;99.90;;;;;;5114622;28;20437;-63
2022/12/09 01:09:07;;;;;;;25.80;13.32;;;-0.90;99.90;;;;;;5115980;28;20046;-63
2022/12/09 01:11:33;;;;;;;34.63;12.63;;;-0.90;99.90;;;;;;5116196;28;20088;-63
2022/12/09 01:14:01;;;;;;;81.40;20.17;;;-0.90;99.90;;;;;;5115045;28;20039;-63
2022/12/09 01:16:30;;;;;;;46.65;16.70;;;-0.90;99.90;;;;;;5116045;28;20043;-63
2022/12/09 01:18:59;;;;;;;18.40;10.82;;;-0.90;99.90;;;;;;5114619;28;20115;-62
2022/12/09 01:21:28;;;;;;;61.17;15.18;;;-0.90;99.90;;;;;;5096840;28;20035;-63
2022/12/09 01:23:54;;;;;;;44.42;16.95;;;-0.90;99.90;;;;;;5114548;28;20484;-63
2022/12/09 01:26:20;;;;;;;22.30;11.77;;;-0.90;99.90;;;;;;5114231;28;20039;-62
2022/12/09 01:28:51;;;;;;;60.03;15.55;;;-0.90;99.90;;;;;;5113417;28;20047;-63
2022/12/09 01:31:19;;;;;;;26.25;13.15;;;-0.90;99.90;;;;;;5114403;28;20071;-62
2022/12/09 01:33:45;;;;;;;22.70;11.20;;;-0.90;99.90;;;;;;5114894;28;20031;-62
2022/12/09 01:36:15;;;;;;;75.15;19.90;;;-0.90;99.90;;;;;;5115351;28;20054;-63
2022/12/09 01:38:41;;;;;;;35.38;13.15;;;-1.00;99.90;;;;;;5116013;27;20039;-62
2022/12/09 01:41:07;;;;;;;22.02;11.57;;;-1.00;99.90;;;;;;5114743;28;20507;-63
2022/12/09 01:43:32;;;;;;;26.42;12.02;;;-1.00;99.90;;;;;;5114131;28;20092;-63
2022/12/09 01:45:58;;;;;;;57.17;17.10;;;-1.00;99.90;;;;;;5114085;28;20120;-63
2022/12/09 01:48:28;;;;;;;34.72;13.63;;;-0.90;99.90;;;;;;5113150;28;20077;-63
2022/12/09 01:51:03;;;;;;;27.77;12.45;;;-0.90;99.90;;;;;;5115146;28;20480;-63
2022/12/09 01:53:34;;;;;;;30.35;12.07;;;-0.90;99.90;;;;;;5115658;27;20047;-63
2022/12/09 01:56:04;;;;;;;48.42;15.43;;;-0.90;99.90;;;;;;5113182;28;20051;-63
2022/12/09 01:58:31;;;;;;;33.22;14.15;;;-0.90;99.90;;;;;;5114011;28;20092;-63
2022/12/09 02:00:56;;;;;;;26.50;13.02;;;-1.00;99.90;;;;;;5115216;28;20039;-63
2022/12/09 02:03:22;;;;;;;25.92;12.68;;;-0.90;99.90;;;;;;5113099;28;20119;-63
2022/12/09 02:05:48;;;;;;;36.58;14.30;;;-0.80;99.90;;;;;;5113686;28;20124;-63
2022/12/09 02:08:17;;;;;;;39.75;13.45;;;-0.80;99.90;;;;;;5114095;28;20046;-63
2022/12/09 02:11:05;;;;;;;27.65;14.55;;;-0.80;99.90;;;;;;5113890;28;20506;-63
2022/12/09 02:13:43;;;;;;;22.35;13.45;;;-0.80;99.90;;;;;;5098009;28;20056;-63
2022/12/09 02:16:14;;;;;;;22.75;14.13;;;-0.80;99.90;;;;;;5114123;28;20044;-63
2022/12/09 02:18:43;;;;;;;20.17;13.23;;;-0.80;99.90;;;;;;5114196;28;20047;-63
2022/12/09 02:21:27;;;;;;;24.65;14.50;;;-0.90;99.90;;;;;;5114646;28;20092;-63
2022/12/09 02:24:04;;;;;;;23.70;12.98;;;-0.80;99.90;;;;;;5112660;28;20043;-63
2022/12/09 02:27:14;;;;;;;22.70;12.43;;;-0.80;99.90;;;;;;5114350;28;20063;-63
2022/12/09 02:29:58;;;;;;;20.55;13.73;;;-0.80;99.90;;;;;;5114736;28;20480;-62
2022/12/09 02:32:33;;;;;;;23.88;13.88;;;-0.80;99.90;;;;;;5114417;28;20384;-63
2022/12/09 02:35:12;;;;;;;19.00;11.82;;;-0.80;99.90;;;;;;5113203;28;20093;-63
2022/12/09 02:37:57;;;;;;;22.02;13.43;;;-0.90;99.90;;;;;;5112959;28;20404;-63
2022/12/09 02:40:37;;;;;;;21.58;12.20;;;-0.90;99.90;;;;;;5112902;28;20502;-63
2022/12/09 02:43:06;;;;;;;17.25;10.93;;;-0.90;99.90;;;;;;5113032;28;20488;-63
2022/12/09 02:45:34;;;;;;;19.63;11.23;;;-0.90;99.90;;;;;;5095348;28;20048;-62
2022/12/09 02:48:02;;;;;;;19.58;12.15;;;-0.90;99.90;;;;;;5112849;28;20089;-63
2022/12/09 02:50:32;;;;;;;21.73;11.88;;;-0.90;99.90;;;;;;5095846;28;20043;-62
2022/12/09 02:53:02;;;;;;;18.92;11.77;;;-0.90;99.90;;;;;;5111777;28;20519;-63
2022/12/09 02:55:29;;;;;;;20.70;11.55;;;-0.90;99.90;;;;;;5112486;28;20089;-62
2022/12/09 02:57:59;;;;;;;24.23;13.88;;;-0.90;99.90;;;;;;5112600;28;20093;-63
2022/12/09 03:00:26;;;;;;;23.83;13.45;;;-0.80;99.90;;;;;;5114052;28;20090;-63
2022/12/09 03:02:55;;;;;;;23.80;13.57;;;-0.90;99.90;;;;;;5113931;28;20104;-63
2022/12/09 03:05:38;;;;;;;18.48;11.27;;;-0.90;99.90;;;;;;5111579;28;20051;-63
2022/12/09 03:08:47;;;;;;;17.98;11.10;;;-0.90;99.90;;;;;;5113464;28;20139;-63
2022/12/09 03:11:18;;;;;;;22.73;12.13;;;-0.90;99.90;;;;;;5033282;28;20055;-63
2022/12/09 03:14:11;;;;;;;18.52;11.73;;;-0.90;99.90;;;;;;5112733;28;20485;-63
2022/12/09 03:16:40;;;;;;;23.95;13.05;;;-0.90;99.90;;;;;;5112406;28;20510;-63
2022/12/09 03:19:18;;;;;;;21.83;12.27;;;-0.90;99.90;;;;;;5110973;28;20043;-62
2022/12/09 03:21:49;;;;;;;23.67;12.68;;;-0.90;99.90;;;;;;5112488;28;20047;-63
2022/12/09 03:24:20;;;;;;;24.92;13.63;;;-0.90;99.90;;;;;;5111008;28;20570;-62
2022/12/09 03:26:48;;;;;;;22.95;12.48;;;-0.80;99.90;;;;;;5112062;28;20059;-63
2022/12/09 03:29:22;;;;;;;21.52;12.18;;;-0.80;99.90;;;;;;5111940;28;20047;-63
2022/12/09 03:31:49;;;;;;;20.70;11.07;;;-0.80;99.90;;;;;;5095342;28;20047;-63
2022/12/09 03:34:19;;;;;;;22.73;11.50;;;-0.80;99.90;;;;;;5094041;28;20051;-63
2022/12/09 03:36:48;;;;;;;21.42;12.13;;;-0.80;99.90;;;;;;5094827;28;20036;-63
2022/12/09 03:39:18;;;;;;;18.90;10.90;;;-0.80;99.90;;;;;;5111461;28;20044;-63
2022/12/09 03:41:49;;;;;;;19.05;10.63;;;-0.80;99.90;;;;;;5112471;28;20119;-62
2022/12/09 03:44:36;;;;;;;19.35;10.02;;;-0.70;99.90;;;;;;5111597;28;20039;-63
2022/12/09 03:47:04;;;;;;;19.13;10.45;;;-0.70;99.90;;;;;;5113116;28;20100;-63
2022/12/09 03:49:30;;;;;;;21.63;10.90;;;-0.70;99.90;;;;;;5110864;28;20044;-63
2022/12/09 03:52:09;;;;;;;18.73;10.52;;;-0.70;99.90;;;;;;5113117;28;20032;-63
2022/12/09 03:54:43;;;;;;;18.17;10.25;;;-0.70;99.90;;;;;;5112387;28;20047;-63
2022/12/09 03:57:13;;;;;;;22.67;11.33;;;-0.70;99.90;;;;;;5111542;28;20039;-63
2022/12/09 03:59:41;;;;;;;15.30;9.82;;;-0.70;99.90;;;;;;5111670;28;20330;-62
2022/12/09 04:02:07;;;;;;;19.15;10.55;;;-0.70;99.90;;;;;;5110425;28;20043;-63
2022/12/09 04:04:34;;;;;;;18.83;10.18;;;-0.70;99.90;;;;;;5112987;28;20100;-63
2022/12/09 04:06:59;;;;;;;16.40;9.52;;;-0.70;99.90;;;;;;5111483;28;20059;-63
2022/12/09 04:09:25;;;;;;;20.48;10.77;;;-0.70;99.90;;;;;;5093493;28;20476;-63
2022/12/09 04:11:51;;;;;;;19.70;9.68;;;-0.70;99.90;;;;;;5111180;28;20043;-63
2022/12/09 04:14:17;;;;;;;16.95;9.88;;;-0.70;99.90;;;;;;5112461;28;20042;-63
2022/12/09 04:16:43;;;;;;;20.30;11.60;;;-0.70;99.90;;;;;;5110279;28;20043;-63
2022/12/09 04:19:09;;;;;;;18.42;9.80;;;-0.70;99.90;;;;;;5112515;28;20032;-63
2022/12/09 04:21:35;;;;;;;22.20;10.65;;;-0.60;99.90;;;;;;5112478;28;20084;-63
2022/12/09 04:24:00;;;;;;;19.58;10.23;;;-0.60;99.90;;;;;;5111531;28;20039;-63
2022/12/09 04:26:26;;;;;;;18.17;10.02;;;-0.60;99.90;;;;;;5111870;28;20070;-63
2022/12/09 04:28:52;;;;;;;19.50;10.02;;;-0.60;99.90;;;;;;5111261;28;20054;-63
2022/12/09 04:31:19;;;;;;;20.15;9.95;;;-0.60;99.90;;;;;;5109976;28;20431;-63
2022/12/09 04:33:45;;;;;;;20.52;10.70;;;-0.60;99.90;;;;;;5111088;28;20043;-63
2022/12/09 04:36:13;;;;;;;17.77;11.02;;;-0.50;99.90;;;;;;5110515;28;20134;-63
2022/12/09 04:38:40;;;;;;;21.92;10.82;;;-0.60;99.90;;;;;;5110259;28;20039;-63
2022/12/09 04:41:05;;;;;;;18.35;10.40;;;-0.50;99.90;;;;;;5110588;28;20078;-63
2022/12/09 04:43:31;;;;;;;18.92;11.02;;;-0.50;99.90;;;;;;5110245;28;20071;-62
2022/12/09 04:46:03;;;;;;;20.63;10.98;;;-0.50;99.90;;;;;;5110766;28;20417;-63
2022/12/09 04:48:29;;;;;;;19.73;10.63;;;-0.50;99.90;;;;;;5111272;28;20047;-63
2022/12/09 04:50:56;;;;;;;18.67;11.55;;;-0.50;99.90;;;;;;5109724;28;20039;-63
2022/12/09 04:53:22;;;;;;;19.02;10.43;;;-0.50;99.90;;;;;;5112032;28;20047;-63
2022/12/09 04:55:48;;;;;;;18.25;9.90;;;-0.50;99.90;;;;;;5110623;28;20050;-63
2022/12/09 04:58:13;;;;;;;21.05;11.60;;;-0.60;99.90;;;;;;5111099;28;20032;-63
2022/12/09 05:00:39;;;;;;;21.65;11.15;;;-0.60;99.90;;;;;;5110994;28;20060;-63
2022/12/09 05:03:04;;;;;;;20.63;10.88;;;-0.60;99.90;;;;;;5110810;28;20082;-63
2022/12/09 05:05:30;;;;;;;17.50;10.18;;;-0.70;99.90;;;;;;5109807;28;20040;-63
2022/12/09 05:07:56;;;;;;;15.98;10.20;;;-0.70;99.90;;;;;;5110744;28;20043;-63
2022/12/09 05:10:22;;;;;;;17.13;9.88;;;-0.70;99.90;;;;;;5110804;28;20043;-63
2022/12/09 05:12:47;;;;;;;16.15;10.57;;;-0.70;99.90;;;;;;5109839;28;20054;-63
2022/12/09 05:15:13;;;;;;;19.08;11.23;;;-0.70;99.90;;;;;;5110423;28;20123;-63
2022/12/09 05:17:39;;;;;;;20.33;11.63;;;-0.70;99.90;;;;;;5110904;28;20120;-63
2022/12/09 05:20:05;;;;;;;19.02;11.43;;;-0.80;99.90;;;;;;5110783;28;20032;-63
2022/12/09 05:22:31;;;;;;;15.68;8.68;;;-0.80;99.90;;;;;;5111875;28;20078;-63
2022/12/09 05:24:57;;;;;;;19.83;10.45;;;-0.80;99.90;;;;;;5110580;28;20124;-63
2022/12/09 05:27:23;;;;;;;18.30;9.90;;;-0.80;99.90;;;;;;5109505;28;20056;-63
2022/12/09 05:29:48;;;;;;;17.27;9.82;;;-0.80;99.90;;;;;;5110370;28;20038;-63
2022/12/09 05:32:14;;;;;;;19.92;11.02;;;-0.80;99.90;;;;;;5111863;28;20102;-63
2022/12/09 05:34:39;;;;;;;18.60;10.18;;;-0.90;99.90;;;;;;5109731;28;20476;-63
2022/12/09 05:37:05;;;;;;;16.65;10.25;;;-0.90;99.90;;;;;;5111534;28;20038;-64
2022/12/09 05:39:31;;;;;;;18.55;10.43;;;-0.90;99.90;;;;;;5110523;28;20075;-63
2022/12/09 05:41:56;;;;;;;16.98;9.23;;;-0.90;99.90;;;;;;5109697;28;20050;-63
2022/12/09 05:44:22;;;;;;;20.27;10.07;;;-0.90;99.90;;;;;;5111761;28;20046;-63
2022/12/09 05:46:48;;;;;;;18.65;10.48;;;-0.90;99.90;;;;;;5112086;28;20062;-63
2022/12/09 05:49:13;;;;;;;18.02;9.85;;;-0.90;99.90;;;;;;5096910;28;20434;-64
2022/12/09 05:51:39;;;;;;;17.77;10.88;;;-0.80;99.90;;;;;;5114468;28;20485;-63
2022/12/09 05:54:05;;;;;;;19.35;10.50;;;-0.80;99.90;;;;;;5112690;28;20131;-60
2022/12/09 05:56:31;;;;;;;18.13;9.93;;;-0.90;99.90;;;;;;5114133;28;20046;-60
2022/12/09 05:58:58;;;;;;;18.50;10.15;;;-0.80;99.90;;;;;;5113725;28;20492;-60
2022/12/09 06:01:24;;;;;;;21.17;11.35;;;-0.80;99.90;;;;;;5114322;28;20039;-61
2022/12/09 06:03:51;;;;;;;17.60;10.63;;;-0.80;99.90;;;;;;5114859;28;20157;-61
2022/12/09 06:06:19;;;;;;;21.25;10.45;;;-0.70;99.90;;;;;;5113721;28;20071;-62
2022/12/09 06:08:45;;;;;;;20.70;11.82;;;-0.70;99.90;;;;;;5112609;28;20043;-61
2022/12/09 06:11:18;;;;;;;21.65;12.25;;;-0.70;99.90;;;;;;5114855;28;20406;-62
2022/12/09 06:13:44;;;;;;;20.80;12.32;;;-0.60;99.90;;;;;;5113492;28;20515;-61
2022/12/09 06:16:10;;;;;;;20.65;11.13;;;-0.60;99.90;;;;;;5112460;28;20043;-61
2022/12/09 06:18:37;;;;;;;19.88;11.73;;;-0.50;99.90;;;;;;5096704;28;20050;-62
2022/12/09 06:21:07;;;;;;;21.65;11.70;;;-0.50;99.90;;;;;;5113452;28;20116;-62
2022/12/09 06:23:35;;;;;;;23.40;12.00;;;-0.50;99.90;;;;;;5113943;28;20031;-62
2022/12/09 06:26:02;;;;;;;25.05;13.75;;;-0.40;99.90;;;;;;5113251;28;20127;-62
2022/12/09 06:28:28;;;;;;;23.17;12.45;;;-0.30;99.90;;;;;;5113278;28;20442;-62
2022/12/09 06:30:53;;;;;;;25.27;13.75;;;-0.30;99.90;;;;;;5112363;28;20056;-62
2022/12/09 06:33:19;;;;;;;23.20;14.07;;;-0.30;99.90;;;;;;5113004;28;20078;-62
2022/12/09 06:35:44;;;;;;;27.40;14.52;;;-0.20;99.90;;;;;;5112983;28;20044;-62
2022/12/09 06:38:10;;;;;;;31.80;15.48;;;-0.20;99.90;;;;;;5113465;28;20046;-62
2022/12/09 06:40:40;;;;;;;26.25;14.30;;;-0.20;99.90;;;;;;5113361;28;20377;-62
2022/12/09 06:43:06;;;;;;;27.35;13.88;;;-0.20;99.90;;;;;;5112359;28;20089;-61
2022/12/09 06:45:32;;;;;;;26.92;15.07;;;-0.20;99.90;;;;;;5113296;28;20426;-62
2022/12/09 06:47:57;;;;;;;30.88;16.30;;;-0.20;99.90;;;;;;5113122;28;20049;-62
2022/12/09 06:50:23;;;;;;;33.30;17.17;;;-0.20;99.90;;;;;;5113352;28;20090;-62
2022/12/09 06:52:49;;;;;;;26.83;15.43;;;-0.20;99.90;;;;;;5112941;28;20039;-61
2022/12/09 06:55:14;;;;;;;26.98;15.32;;;-0.20;99.90;;;;;;5112902;28;20079;-62
2022/12/09 06:57:40;;;;;;;28.60;15.93;;;-0.20;99.90;;;;;;5112552;28;20036;-61
2022/12/09 07:00:06;;;;;;;33.35;16.50;;;-0.20;99.90;;;;;;5113729;28;20532;-61
2022/12/09 07:02:33;;;;;;;29.98;16.25;;;-0.20;99.90;;;;;;5112879;28;20110;-61
2022/12/09 07:05:02;;;;;;;30.45;17.65;;;-0.20;99.90;;;;;;5111844;28;20055;-62
2022/12/09 07:07:28;;;;;;;34.45;18.02;;;-0.20;99.90;;;;;;5109157;28;20039;-61
2022/12/09 07:09:53;;;;;;;37.38;20.95;;;-0.20;99.90;;;;;;5110861;28;20038;-61
2022/12/09 07:12:19;;;;;;;38.45;20.27;;;-0.20;99.90;;;;;;5112172;28;20040;-62
2022/12/09 07:14:45;;;;;;;38.15;20.13;;;-0.10;99.90;;;;;;5113196;28;20036;-61
2022/12/09 07:17:16;;;;;;;33.78;18.20;;;-0.10;99.90;;;;;;5112574;28;20395;-62
2022/12/09 07:19:41;;;;;;;39.35;20.70;;;-0.10;99.90;;;;;;5094333;28;20400;-62
2022/12/09 07:22:07;;;;;;;36.85;20.55;;;-0.10;99.90;;;;;;5113588;28;20043;-63
2022/12/09 07:24:33;;;;;;;41.92;19.73;;;-0.10;99.90;;;;;;5095428;28;20484;-63
2022/12/09 07:27:00;;;;;;;40.28;21.08;;;-0.10;99.90;;;;;;5112140;27;20051;-62
2022/12/09 07:29:25;;;;;;;42.33;22.40;;;-0.10;99.90;;;;;;5109797;27;20044;-62
2022/12/09 07:31:55;;;;;;;43.78;24.00;;;-0.10;99.90;;;;;;5112023;28;20047;-62
2022/12/09 07:34:21;;;;;;;48.55;26.48;;;-0.10;99.90;;;;;;5098373;28;20500;-63
2022/12/09 07:36:48;;;;;;;79.78;41.45;;;0.00;99.90;;;;;;5109701;28;20154;-63
2022/12/09 07:39:16;;;;;;;72.13;39.40;;;0.00;99.90;;;;;;5109179;28;20470;-63
2022/12/09 07:41:43;;;;;;;54.88;31.13;;;0.00;99.90;;;;;;5106838;28;20086;-63
2022/12/09 07:44:10;;;;;;;52.85;28.52;;;0.00;99.90;;;;;;5108871;28;20446;-63
2022/12/09 07:46:38;;;;;;;60.58;30.20;;;0.00;99.90;;;;;;5109546;28;20047;-62
2022/12/09 07:49:04;;;;;;;52.35;27.35;;;0.10;99.90;;;;;;5108974;28;20446;-63
2022/12/09 07:51:31;;;;;;;44.20;24.75;;;0.10;99.90;;;;;;5109370;28;20075;-63
2022/12/09 07:53:58;;;;;;;49.03;25.20;;;0.10;99.90;;;;;;5109283;28;20121;-63
2022/12/09 07:56:26;;;;;;;49.28;25.77;;;0.20;99.90;;;;;;5091558;28;20043;-63
2022/12/09 07:58:53;;;;;;;60.60;27.55;;;0.20;99.90;;;;;;5108457;28;20104;-63
2022/12/09 08:01:21;;;;;;;53.85;27.48;;;0.20;99.90;;;;;;5108373;28;20048;-62
2022/12/09 08:03:47;;;;;;;55.20;26.35;;;0.30;99.90;;;;;;5109144;28;20055;-62
2022/12/09 08:06:15;;;;;;;40.53;24.42;;;0.30;99.90;;;;;;5110492;28;20126;-62
2022/12/09 08:08:41;;;;;;;65.30;30.52;;;0.30;99.90;;;;;;5089570;28;20131;-62
2022/12/09 08:11:14;;;;;;;49.10;26.15;;;0.30;99.90;;;;;;5110268;28;20647;-62
2022/12/09 08:13:43;;;;;;;65.20;30.92;;;0.30;99.90;;;;;;5092163;28;20035;-62
2022/12/09 08:16:10;;;;;;;71.05;33.55;;;0.40;99.90;;;;;;5107990;28;20488;-62
2022/12/09 08:18:37;;;;;;;78.55;35.53;;;0.40;99.90;;;;;;5092084;28;20570;-62
2022/12/09 08:21:05;;;;;;;88.53;38.20;;;0.40;99.90;;;;;;5105088;28;20046;-62
2022/12/09 08:23:31;;;;;;;88.72;38.25;;;0.50;99.90;;;;;;5108441;28;20512;-61
2022/12/09 08:25:56;;;;;;;86.07;36.03;;;0.50;99.90;;;;;;5108532;28;20119;-62
2022/12/09 08:28:22;;;;;;;104.88;43.58;;;0.50;99.90;;;;;;5109481;28;20062;-62
2022/12/09 08:30:49;;;;;;;118.28;44.30;;;0.50;99.90;;;;;;5109105;28;20150;-61
2022/12/09 08:33:15;;;;;;;196.85;64.60;;;0.50;99.90;;;;;;5088685;28;20097;-61
2022/12/09 08:35:41;;;;;;;168.63;56.45;;;0.50;99.90;;;;;;5107804;28;20056;-61
2022/12/09 08:38:06;;;;;;;163.15;52.80;;;0.50;99.90;;;;;;5098003;28;20669;-61
2022/12/09 08:40:32;;;;;;;118.25;45.10;;;0.50;99.90;;;;;;5108685;28;20122;-61
2022/12/09 08:42:58;;;;;;;110.38;43.60;;;0.50;99.90;;;;;;5110930;28;20126;-61
2022/12/09 08:45:23;;;;;;;196.98;59.88;;;0.50;99.90;;;;;;5110420;28;20047;-61
2022/12/09 08:47:49;;;;;;;128.05;46.40;;;0.60;99.90;;;;;;5109874;28;20039;-61
2022/12/09 08:50:16;;;;;;;108.80;41.55;;;0.50;99.90;;;;;;5110029;28;20036;-61
2022/12/09 08:52:41;;;;;;;137.98;46.83;;;0.50;99.90;;;;;;5111287;28;20562;-61
2022/12/09 08:55:08;;;;;;;102.38;39.75;;;0.50;99.90;;;;;;5111286;28;20051;-62
2022/12/09 08:57:34;;;;;;;77.55;36.85;;;0.50;99.90;;;;;;5110938;28;20517;-61
2022/12/09 09:00:01;;;;;;;112.15;44.70;;;0.50;99.90;;;;;;5111605;28;20511;-62
2022/12/09 09:02:26;;;;;;;184.02;54.53;;;0.60;99.90;;;;;;5110681;28;20047;-61
2022/12/09 09:04:53;;;;;;;124.70;43.97;;;0.60;99.90;;;;;;5111594;28;20041;-61
2022/12/09 09:07:18;;;;;;;114.15;47.13;;;0.60;99.90;;;;;;5110989;28;20036;-62
2022/12/09 09:09:44;;;;;;;60.85;29.73;;;0.60;99.90;;;;;;5111877;28;20040;-62
2022/12/09 09:12:10;;;;;;;71.65;31.85;;;0.60;99.90;;;;;;5111261;28;20096;-62
2022/12/09 09:14:35;;;;;;;112.43;42.00;;;0.50;99.90;;;;;;5112454;28;20043;-62
2022/12/09 09:17:01;;;;;;;69.20;32.58;;;0.60;99.90;;;;;;5110362;28;20051;-61
2022/12/09 09:19:27;;;;;;;113.38;41.47;;;0.50;99.90;;;;;;5111285;28;20101;-61
2022/12/09 09:21:53;;;;;;;99.22;39.13;;;0.50;99.90;;;;;;5113228;28;20040;-61
2022/12/09 09:24:21;;;;;;;148.27;47.90;;;0.50;99.90;;;;;;5114547;28;20039;-61
2022/12/09 09:26:49;;;;;;;106.85;37.60;;;0.50;99.90;;;;;;5113410;28;20136;-61
2022/12/09 09:29:17;;;;;;;63.05;30.70;;;0.50;99.90;;;;;;5115839;28;20061;-61
2022/12/09 09:31:42;;;;;;;81.60;35.10;;;0.40;99.90;;;;;;5114268;28;20082;-61
2022/12/09 09:34:09;;;;;;;149.00;47.88;;;0.50;99.90;;;;;;5114692;28;20109;-61
2022/12/09 09:36:35;;;;;;;85.13;36.30;;;0.40;99.90;;;;;;5115803;28;20128;-61
2022/12/09 09:39:00;;;;;;;111.45;40.33;;;0.50;99.90;;;;;;5113708;28;20063;-61
2022/12/09 09:41:46;;;;;;;118.50;40.60;;;0.40;99.90;;;;;;5113875;28;20054;-61
2022/12/09 09:44:27;;;;;;;139.63;50.50;;;0.50;99.90;;;;;;5099729;28;20396;-61
2022/12/09 09:46:54;;;;;;;107.88;36.50;;;0.50;99.90;;;;;;5114711;28;20039;-61
2022/12/09 09:49:36;;;;;;;183.20;51.92;;;0.50;99.90;;;;;;5114923;28;20484;-61
2022/12/09 09:52:17;;;;;;;82.30;34.15;;;0.50;99.90;;;;;;5114996;28;20044;-61
2022/12/09 09:54:43;;;;;;;172.18;51.75;;;0.50;99.90;;;;;;5113234;28;20046;-61
2022/12/09 09:57:15;;;;;;;111.88;35.20;;;0.50;99.90;;;;;;5114342;28;20040;-61
2022/12/09 10:00:31;;;;;;;109.47;39.28;;;0.50;99.90;;;;;;5115666;28;20059;-61
2022/12/09 10:03:13;;;;;;;81.55;30.48;;;0.60;99.90;;;;;;5033029;28;20067;-61
2022/12/09 10:06:09;;;;;;;121.40;40.42;;;0.50;99.90;;;;;;5106671;28;20048;-60
2022/12/09 10:09:01;;;;;;;80.45;31.95;;;0.50;99.90;;;;;;5110876;27;20495;-61
2022/12/09 10:12:08;;;;;;;100.97;37.67;;;0.60;99.90;;;;;;5113797;28;20531;-61
2022/12/09 10:14:52;;;;;;;93.97;34.58;;;0.60;99.90;;;;;;5104245;28;20047;-60
2022/12/09 10:17:20;;;;;;;184.15;51.80;;;0.60;99.90;;;;;;5108708;28;20067;-61
2022/12/09 10:19:51;;;;;;;51.30;25.33;;;0.60;99.90;;;;;;5113017;28;20036;-61
2022/12/09 10:22:27;;;;;;;82.22;36.90;;;0.60;99.90;;;;;;5100197;28;20484;-61
2022/12/09 10:24:57;;;;;;;80.60;32.80;;;0.60;99.90;;;;;;5112966;28;20463;-61
2022/12/09 10:27:36;;;;;;;68.65;32.78;;;0.60;99.90;;;;;;5097661;28;20125;-60
2022/12/09 10:30:14;;;;;;;131.25;43.72;;;0.70;99.90;;;;;;5112958;28;20365;-61
2022/12/09 10:32:40;;;;;;;162.27;51.42;;;0.70;99.90;;;;;;5107211;28;20050;-60
2022/12/09 10:35:33;;;;;;;101.35;37.17;;;0.70;99.90;;;;;;5112137;28;20492;-59
2022/12/09 10:38:11;;;;;;;76.97;31.38;;;0.80;99.90;;;;;;5107598;28;20054;-60
2022/12/09 10:40:46;;;;;;;135.20;43.78;;;0.80;99.90;;;;;;5112738;28;20055;-61
2022/12/09 10:43:34;;;;;;;112.38;42.78;;;0.80;99.90;;;;;;5094219;28;20036;-59
2022/12/09 10:46:02;;;;;;;60.42;28.80;;;0.90;99.90;;;;;;5112066;28;20050;-60
2022/12/09 10:48:32;;;;;;;84.57;32.05;;;0.80;99.90;;;;;;5111995;28;20043;-59
2022/12/09 10:51:04;;;;;;;87.28;34.50;;;0.90;99.90;;;;;;5110609;28;20040;-60
2022/12/09 10:53:32;;;;;;;137.80;46.95;;;0.80;99.90;;;;;;5113396;27;20069;-59
2022/12/09 10:55:59;;;;;;;53.60;24.10;;;0.90;99.90;;;;;;5095072;28;20032;-59
2022/12/09 10:58:28;;;;;;;69.05;32.03;;;0.90;99.90;;;;;;5111400;28;20035;-59
2022/12/09 11:01:12;;;;;;;78.32;30.35;;;0.90;99.90;;;;;;5111534;28;20034;-59
2022/12/09 11:03:52;;;;;;;74.47;30.50;;;0.90;99.90;;;;;;5087983;28;20032;-59
2022/12/09 11:06:27;;;;;;;54.83;25.88;;;0.90;99.90;;;;;;5112964;28;20043;-59
2022/12/09 11:08:59;;;;;;;47.80;23.20;;;0.90;99.90;;;;;;5113371;28;20060;-59
2022/12/09 11:11:40;;;;;;;56.78;27.08;;;0.90;99.90;;;;;;5111964;28;20047;-59
2022/12/09 11:14:54;;;;;;;65.07;28.60;;;1.00;99.90;;;;;;5111710;28;20388;-59
2022/12/09 11:17:29;;;;;;;43.42;22.25;;;1.00;99.90;;;;;;4995233;28;20088;-60
2022/12/09 11:20:19;;;;;;;49.53;23.80;;;0.90;99.90;;;;;;5014831;28;20061;-59
2022/12/09 11:22:58;;;;;;;61.53;26.38;;;1.00;99.90;;;;;;5073401;28;20052;-59
2022/12/09 11:25:27;;;;;;;60.08;27.83;;;0.90;99.90;;;;;;5092241;28;20058;-59
2022/12/09 11:27:56;;;;;;;74.50;33.67;;;1.00;99.90;;;;;;5092996;28;20052;-59
2022/12/09 11:30:25;;;;;;;91.43;39.47;;;1.00;99.90;;;;;;5095986;28;20044;-59
2022/12/09 11:33:04;;;;;;;129.23;41.47;;;1.00;99.90;;;;;;5111148;28;20048;-59
2022/12/09 11:35:44;;;;;;;72.47;32.63;;;1.10;99.90;;;;;;5112178;28;20040;-60
2022/12/09 11:38:45;;;;;;;83.05;34.30;;;1.10;99.90;;;;;;5111413;28;20043;-59
2022/12/09 11:41:10;;;;;;;60.60;28.42;;;1.10;99.90;;;;;;5109893;28;20088;-60
2022/12/09 11:43:52;;;;;;;74.65;31.35;;;1.10;99.90;;;;;;5111644;28;20031;-60
2022/12/09 11:46:30;;;;;;;66.78;29.98;;;1.10;99.90;;;;;;5112140;28;20408;-60
2022/12/09 11:48:56;;;;;;;65.65;29.55;;;1.20;99.90;;;;;;5113741;28;20051;-60
2022/12/09 11:51:58;;;;;;;78.50;31.70;;;1.20;99.90;;;;;;5112887;28;20043;-60
2022/12/09 11:54:29;;;;;;;70.10;32.10;;;1.20;99.90;;;;;;5110496;28;20044;-61
2022/12/09 11:56:58;;;;;;;54.72;28.52;;;1.20;99.90;;;;;;5093723;28;20369;-61
2022/12/09 11:59:32;;;;;;;70.82;29.10;;;1.20;99.90;;;;;;5074141;28;20051;-61
2022/12/09 12:02:19;;;;;;;89.82;37.85;;;1.20;99.90;;;;;;5108099;28;20028;-60
2022/12/09 12:04:57;;;;;;;78.75;33.30;;;1.20;99.90;;;;;;5111182;28;20051;-60
2022/12/09 12:07:47;;;;;;;81.68;29.35;;;1.20;99.90;;;;;;5111820;28;20712;-60
2022/12/09 12:10:33;;;;;;;85.80;31.42;;;1.20;99.90;;;;;;5112985;28;20418;-61
2022/12/09 12:13:17;;;;;;;59.90;27.40;;;1.20;99.90;;;;;;5112873;28;20043;-60
2022/12/09 12:15:54;;;;;;;53.58;25.20;;;1.20;99.90;;;;;;5112040;28;20051;-60
2022/12/09 12:18:22;;;;;;;65.53;28.13;;;1.20;99.90;;;;;;5112758;28;20473;-60
2022/12/09 12:21:01;;;;;;;86.50;31.83;;;1.20;99.90;;;;;;5093698;28;20041;-60
2022/12/09 12:23:48;;;;;;;58.17;24.95;;;1.30;99.90;;;;;;5112916;28;20050;-61
2022/12/09 12:26:31;;;;;;;49.03;23.60;;;1.30;99.90;;;;;;5112543;28;20104;-60
2022/12/09 12:29:25;;;;;;;61.08;26.42;;;1.30;99.90;;;;;;5111942;28;20080;-60
2022/12/09 12:32:05;;;;;;;56.50;24.05;;;1.30;99.90;;;;;;5111409;28;20041;-60
2022/12/09 12:34:51;;;;;;;52.28;26.52;;;1.30;99.90;;;;;;5111810;28;20042;-60
2022/12/09 12:37:17;;;;;;;44.65;22.65;;;1.30;99.90;;;;;;5111223;28;20045;-60
2022/12/09 12:40:09;;;;;;;111.82;37.95;;;1.30;99.90;;;;;;5111117;28;20119;-60
2022/12/09 12:46:16;;;;;;;54.83;25.90;;;1.20;99.90;;;;;;5111712;28;20054;-60
2022/12/09 12:49:10;;;;;;;43.65;21.98;;;1.20;99.90;;;;;;5111241;28;20047;-61
2022/12/09 12:51:52;;;;;;;45.65;21.65;;;1.30;99.90;;;;;;5112557;28;20395;-61